sensor_id;sensor_type;location;lat;lon;timestamp;pressure;altitude;pressure_sealevel;temperature;humidity
43147;BME280;28752;48.266;7.402;2023-08-06T00:01:47;98635.34;;;18.07;66.87
43147;BME280;28752;48.266;7.402;2023-08-06T00:04:12;98643.09;;;18.22;67.11
43147;BME280;28752;48.266;7.402;2023-08-06T00:06:37;98642.50;;;18.14;67.49
43147;BME280;28752;48.266;7.402;2023-08-06T00:09:03;98658.31;;;18.22;67.76
43147;BME280;28752;48.266;7.402;2023-08-06T00:11:29;98607.78;;;17.87;67.38
43147;BME280;28752;48.266;7.402;2023-08-06T00:13:54;98600.81;;;17.79;67.86
43147;BME280;28752;48.266;7.402;2023-08-06T00:16:19;98650.34;;;18.15;67.33
43147;BME280;28752;48.266;7.402;2023-08-06T00:18:45;98582.06;;;17.79;67.50
43147;BME280;28752;48.266;7.402;2023-08-06T00:21:10;98638.59;;;18.16;67.47
43147;BME280;28752;48.266;7.402;2023-08-06T00:23:37;98588.88;;;17.82;67.19
43147;BME280;28752;48.266;7.402;2023-08-06T00:26:03;98606.94;;;17.93;67.15
43147;BME280;28752;48.266;7.402;2023-08-06T00:28:28;98631.63;;;18.08;67.59
43147;BME280;28752;48.266;7.402;2023-08-06T00:30:57;98628.09;;;18.08;67.81
43147;BME280;28752;48.266;7.402;2023-08-06T00:33:23;98587.00;;;17.82;67.85
43147;BME280;28752;48.266;7.402;2023-08-06T00:35:49;98624.22;;;18.04;67.68
43147;BME280;28752;48.266;7.402;2023-08-06T00:38:14;98609.84;;;17.98;67.97
43147;BME280;28752;48.266;7.402;2023-08-06T00:40:39;98568.94;;;17.71;68.42
43147;BME280;28752;48.266;7.402;2023-08-06T00:43:05;98608.59;;;18.01;68.04
43147;BME280;28752;48.266;7.402;2023-08-06T00:45:34;98619.44;;;18.13;68.02
43147;BME280;28752;48.266;7.402;2023-08-06T00:48:00;98555.13;;;17.74;68.23
43147;BME280;28752;48.266;7.402;2023-08-06T00:50:26;98605.44;;;18.10;68.12
43147;BME280;28752;48.266;7.402;2023-08-06T00:52:52;98575.00;;;17.98;67.85
43147;BME280;28752;48.266;7.402;2023-08-06T00:55:17;98604.53;;;18.23;68.35
43147;BME280;28752;48.266;7.402;2023-08-06T00:57:43;98559.38;;;17.95;68.26
43147;BME280;28752;48.266;7.402;2023-08-06T01:00:09;98609.44;;;18.33;68.43
43147;BME280;28752;48.266;7.402;2023-08-06T01:02:35;98563.44;;;18.04;69.05
43147;BME280;28752;48.266;7.402;2023-08-06T01:05:00;98574.88;;;18.18;68.78
43147;BME280;28752;48.266;7.402;2023-08-06T01:15:23;98595.25;;;18.26;70.22
43147;BME280;28752;48.266;7.402;2023-08-06T01:17:50;98616.47;;;18.27;71.79
43147;BME280;28752;48.266;7.402;2023-08-06T01:20:15;98593.84;;;18.17;72.77
43147;BME280;28752;48.266;7.402;2023-08-06T01:22:40;98617.31;;;18.21;76.08
43147;BME280;28752;48.266;7.402;2023-08-06T01:25:07;98607.31;;;18.10;77.20
43147;BME280;28752;48.266;7.402;2023-08-06T01:32:44;98645.06;;;17.95;76.46
43147;BME280;28752;48.266;7.402;2023-08-06T01:35:11;98661.75;;;17.97;74.28
43147;BME280;28752;48.266;7.402;2023-08-06T01:37:38;98643.88;;;17.77;72.16
43147;BME280;28752;48.266;7.402;2023-08-06T01:40:10;98660.75;;;18.30;70.34
43147;BME280;28752;48.266;7.402;2023-08-06T01:42:36;98614.38;;;17.98;69.12
43147;BME280;28752;48.266;7.402;2023-08-06T01:45:01;98665.00;;;18.06;69.32
43147;BME280;28752;48.266;7.402;2023-08-06T01:47:26;98601.88;;;17.71;70.01
43147;BME280;28752;48.266;7.402;2023-08-06T01:49:52;98611.72;;;17.77;69.23
43147;BME280;28752;48.266;7.402;2023-08-06T01:52:17;98649.81;;;17.86;69.42
43147;BME280;28752;48.266;7.402;2023-08-06T01:54:42;98581.94;;;17.61;69.29
43147;BME280;28752;48.266;7.402;2023-08-06T01:57:08;98605.41;;;17.72;68.62
43147;BME280;28752;48.266;7.402;2023-08-06T01:59:33;98605.53;;;17.90;68.57
43147;BME280;28752;48.266;7.402;2023-08-06T02:01:59;98626.72;;;17.99;69.80
43147;BME280;28752;48.266;7.402;2023-08-06T02:04:24;98601.81;;;17.33;70.19
43147;BME280;28752;48.266;7.402;2023-08-06T02:06:49;98618.66;;;17.47;70.35
43147;BME280;28752;48.266;7.402;2023-08-06T02:09:15;98621.69;;;17.64;70.65
43147;BME280;28752;48.266;7.402;2023-08-06T02:11:40;98614.13;;;17.34;71.07
43147;BME280;28752;48.266;7.402;2023-08-06T02:14:05;98617.75;;;17.66;69.73
43147;BME280;28752;48.266;7.402;2023-08-06T02:16:31;98582.88;;;17.28;69.80
43147;BME280;28752;48.266;7.402;2023-08-06T02:18:56;98637.72;;;17.70;70.32
43147;BME280;28752;48.266;7.402;2023-08-06T02:21:21;98612.91;;;17.43;69.81
43147;BME280;28752;48.266;7.402;2023-08-06T02:23:47;98597.06;;;17.35;69.82
43147;BME280;28752;48.266;7.402;2023-08-06T02:26:12;98610.19;;;17.50;68.46
43147;BME280;28752;48.266;7.402;2023-08-06T02:28:37;98608.72;;;17.61;68.18
43147;BME280;28752;48.266;7.402;2023-08-06T02:31:03;98603.41;;;17.47;69.17
43147;BME280;28752;48.266;7.402;2023-08-06T02:33:28;98581.16;;;17.53;68.90
43147;BME280;28752;48.266;7.402;2023-08-06T02:36:00;98619.53;;;17.86;69.13
43147;BME280;28752;48.266;7.402;2023-08-06T02:38:26;98565.56;;;17.44;69.56
43147;BME280;28752;48.266;7.402;2023-08-06T02:40:52;98599.09;;;17.46;69.37
43147;BME280;28752;48.266;7.402;2023-08-06T02:43:17;98574.47;;;17.24;68.36
43147;BME280;28752;48.266;7.402;2023-08-06T02:45:42;98631.53;;;17.70;68.61
43147;BME280;28752;48.266;7.402;2023-08-06T02:48:08;98574.63;;;17.36;68.51
43147;BME280;28752;48.266;7.402;2023-08-06T02:50:40;98637.13;;;17.62;68.17
43147;BME280;28752;48.266;7.402;2023-08-06T02:53:08;98615.38;;;17.38;69.18
43147;BME280;28752;48.266;7.402;2023-08-06T02:55:34;98586.88;;;17.05;69.29
43147;BME280;28752;48.266;7.402;2023-08-06T02:58:00;98598.13;;;17.27;68.42
43147;BME280;28752;48.266;7.402;2023-08-06T03:00:26;98622.19;;;17.27;69.25
43147;BME280;28752;48.266;7.402;2023-08-06T03:02:52;98616.44;;;17.23;68.96
43147;BME280;28752;48.266;7.402;2023-08-06T03:05:17;98606.16;;;17.14;69.67
43147;BME280;28752;48.266;7.402;2023-08-06T03:07:43;98602.47;;;17.15;68.29
43147;BME280;28752;48.266;7.402;2023-08-06T03:10:08;98647.69;;;17.43;69.54
43147;BME280;28752;48.266;7.402;2023-08-06T03:12:34;98630.22;;;17.27;69.89
43147;BME280;28752;48.266;7.402;2023-08-06T03:14:59;98651.19;;;17.44;69.36
43147;BME280;28752;48.266;7.402;2023-08-06T03:17:25;98591.81;;;16.95;69.58
43147;BME280;28752;48.266;7.402;2023-08-06T03:19:50;98579.47;;;16.94;69.77
43147;BME280;28752;48.266;7.402;2023-08-06T03:22:15;98644.81;;;17.38;70.37
43147;BME280;28752;48.266;7.402;2023-08-06T03:24:41;98629.38;;;17.40;69.91
43147;BME280;28752;48.266;7.402;2023-08-06T03:27:06;98582.31;;;17.05;69.25
43147;BME280;28752;48.266;7.402;2023-08-06T03:29:31;98566.88;;;17.08;68.50
43147;BME280;28752;48.266;7.402;2023-08-06T03:31:57;98574.66;;;17.22;69.48
43147;BME280;28752;48.266;7.402;2023-08-06T03:34:22;98612.47;;;17.46;69.39
43147;BME280;28752;48.266;7.402;2023-08-06T03:36:47;98566.50;;;17.04;68.05
43147;BME280;28752;48.266;7.402;2023-08-06T03:39:13;98621.97;;;17.29;68.20
43147;BME280;28752;48.266;7.402;2023-08-06T03:41:39;98589.91;;;17.15;69.30
43147;BME280;28752;48.266;7.402;2023-08-06T03:44:05;98602.22;;;17.30;69.14
43147;BME280;28752;48.266;7.402;2023-08-06T03:46:30;98594.03;;;17.18;69.42
43147;BME280;28752;48.266;7.402;2023-08-06T03:48:59;98569.16;;;17.04;68.18
43147;BME280;28752;48.266;7.402;2023-08-06T03:51:25;98631.44;;;17.38;68.73
43147;BME280;28752;48.266;7.402;2023-08-06T03:53:50;98613.31;;;17.40;68.92
43147;BME280;28752;48.266;7.402;2023-08-06T03:56:15;98605.50;;;17.32;68.33
43147;BME280;28752;48.266;7.402;2023-08-06T03:58:41;98636.94;;;17.56;69.56
43147;BME280;28752;48.266;7.402;2023-08-06T04:01:06;98603.06;;;17.23;69.68
43147;BME280;28752;48.266;7.402;2023-08-06T04:03:32;98635.94;;;17.44;70.13
43147;BME280;28752;48.266;7.402;2023-08-06T04:05:57;98615.59;;;17.36;70.34
43147;BME280;28752;48.266;7.402;2023-08-06T04:08:23;98635.91;;;17.57;70.49
43147;BME280;28752;48.266;7.402;2023-08-06T04:10:52;98605.09;;;17.42;70.92
43147;BME280;28752;48.266;7.402;2023-08-06T04:13:18;98617.66;;;17.34;71.40
43147;BME280;28752;48.266;7.402;2023-08-06T04:15:44;98598.75;;;17.22;71.21
43147;BME280;28752;48.266;7.402;2023-08-06T04:18:09;98655.66;;;17.63;71.13
43147;BME280;28752;48.266;7.402;2023-08-06T04:20:34;98622.38;;;17.32;71.54
43147;BME280;28752;48.266;7.402;2023-08-06T04:23:05;98665.94;;;17.59;71.85
43147;BME280;28752;48.266;7.402;2023-08-06T04:25:31;98631.66;;;17.30;72.42
43147;BME280;28752;48.266;7.402;2023-08-06T04:27:56;98594.88;;;17.05;72.11
43147;BME280;28752;48.266;7.402;2023-08-06T04:30:21;98592.22;;;17.05;70.55
43147;BME280;28752;48.266;7.402;2023-08-06T04:32:49;98612.50;;;17.33;70.56
43147;BME280;28752;48.266;7.402;2023-08-06T04:35:15;98647.88;;;17.48;69.75
43147;BME280;28752;48.266;7.402;2023-08-06T04:37:40;98640.28;;;17.32;70.27
43147;BME280;28752;48.266;7.402;2023-08-06T04:40:06;98642.97;;;17.38;71.01
43147;BME280;28752;48.266;7.402;2023-08-06T04:42:31;98604.97;;;17.10;70.97
43147;BME280;28752;48.266;7.402;2023-08-06T04:44:56;98654.03;;;17.49;71.78
43147;BME280;28752;48.266;7.402;2023-08-06T04:47:22;98643.56;;;17.40;70.04
43147;BME280;28752;48.266;7.402;2023-08-06T04:49:47;98655.69;;;17.50;70.50
43147;BME280;28752;48.266;7.402;2023-08-06T04:52:12;98658.19;;;17.45;70.57
43147;BME280;28752;48.266;7.402;2023-08-06T04:54:38;98670.50;;;17.59;70.14
43147;BME280;28752;48.266;7.402;2023-08-06T04:57:04;98663.06;;;17.61;70.56
43147;BME280;28752;48.266;7.402;2023-08-06T04:59:29;98645.16;;;17.55;71.37
43147;BME280;28752;48.266;7.402;2023-08-06T05:01:54;98666.59;;;17.62;70.82
43147;BME280;28752;48.266;7.402;2023-08-06T05:04:20;98616.22;;;17.32;70.96
43147;BME280;28752;48.266;7.402;2023-08-06T05:06:45;98646.63;;;17.57;71.06
43147;BME280;28752;48.266;7.402;2023-08-06T05:09:10;98609.66;;;17.21;70.53
43147;BME280;28752;48.266;7.402;2023-08-06T05:11:36;98623.41;;;17.38;70.78
43147;BME280;28752;48.266;7.402;2023-08-06T05:14:01;98667.81;;;17.59;71.36
43147;BME280;28752;48.266;7.402;2023-08-06T05:16:27;98627.94;;;17.37;71.05
43147;BME280;28752;48.266;7.402;2023-08-06T05:18:53;98665.31;;;17.71;71.31
43147;BME280;28752;48.266;7.402;2023-08-06T05:21:18;98673.94;;;17.80;71.35
43147;BME280;28752;48.266;7.402;2023-08-06T05:23:43;98671.44;;;17.91;71.55
43147;BME280;28752;48.266;7.402;2023-08-06T05:26:09;98619.41;;;17.67;71.02
43147;BME280;28752;48.266;7.402;2023-08-06T05:28:34;98637.88;;;17.82;71.45
43147;BME280;28752;48.266;7.402;2023-08-06T05:31:05;98644.88;;;17.90;71.37
43147;BME280;28752;48.266;7.402;2023-08-06T05:33:31;98632.59;;;17.69;72.00
43147;BME280;28752;48.266;7.402;2023-08-06T05:35:56;98649.47;;;17.63;71.59
43147;BME280;28752;48.266;7.402;2023-08-06T05:38:22;98645.16;;;17.62;71.81
43147;BME280;28752;48.266;7.402;2023-08-06T05:40:47;98684.09;;;17.51;73.29
43147;BME280;28752;48.266;7.402;2023-08-06T05:43:13;98635.78;;;17.26;73.29
43147;BME280;28752;48.266;7.402;2023-08-06T05:45:38;98692.34;;;17.49;74.23
43147;BME280;28752;48.266;7.402;2023-08-06T05:48:03;98663.56;;;17.18;74.52
43147;BME280;28752;48.266;7.402;2023-08-06T05:50:29;98698.53;;;17.36;74.54
43147;BME280;28752;48.266;7.402;2023-08-06T05:52:54;98701.00;;;17.38;74.16
43147;BME280;28752;48.266;7.402;2023-08-06T05:55:20;98639.72;;;17.10;74.11
43147;BME280;28752;48.266;7.402;2023-08-06T05:57:45;98671.59;;;17.31;74.76
43147;BME280;28752;48.266;7.402;2023-08-06T06:00:11;98640.09;;;17.27;74.62
43147;BME280;28752;48.266;7.402;2023-08-06T06:02:36;98679.13;;;17.68;74.69
43147;BME280;28752;48.266;7.402;2023-08-06T06:05:02;98676.22;;;17.69;73.90
43147;BME280;28752;48.266;7.402;2023-08-06T06:07:27;98690.00;;;17.73;73.82
43147;BME280;28752;48.266;7.402;2023-08-06T06:09:53;98704.19;;;17.87;73.98
43147;BME280;28752;48.266;7.402;2023-08-06T06:12:18;98697.06;;;17.67;72.58
43147;BME280;28752;48.266;7.402;2023-08-06T06:14:43;98677.03;;;17.70;72.86
43147;BME280;28752;48.266;7.402;2023-08-06T06:17:09;98731.38;;;18.04;72.79
43147;BME280;28752;48.266;7.402;2023-08-06T06:19:34;98725.59;;;18.07;72.74
43147;BME280;28752;48.266;7.402;2023-08-06T06:21:59;98706.25;;;17.91;71.85
43147;BME280;28752;48.266;7.402;2023-08-06T06:24:25;98700.13;;;17.64;71.42
43147;BME280;28752;48.266;7.402;2023-08-06T06:26:50;98726.56;;;18.19;71.70
43147;BME280;28752;48.266;7.402;2023-08-06T06:29:15;98676.97;;;18.03;72.10
43147;BME280;28752;48.266;7.402;2023-08-06T06:31:41;98718.88;;;18.36;71.85
43147;BME280;28752;48.266;7.402;2023-08-06T06:34:06;98724.22;;;18.36;71.56
43147;BME280;28752;48.266;7.402;2023-08-06T06:36:31;98693.16;;;18.22;71.24
43147;BME280;28752;48.266;7.402;2023-08-06T06:38:57;98723.69;;;18.21;71.17
43147;BME280;28752;48.266;7.402;2023-08-06T06:41:22;98703.81;;;18.35;70.93
43147;BME280;28752;48.266;7.402;2023-08-06T06:43:48;98725.97;;;18.94;69.89
43147;BME280;28752;48.266;7.402;2023-08-06T06:46:13;98694.47;;;19.08;69.17
43147;BME280;28752;48.266;7.402;2023-08-06T06:48:38;98695.22;;;18.97;68.52
43147;BME280;28752;48.266;7.402;2023-08-06T06:51:04;98733.78;;;19.46;67.76
43147;BME280;28752;48.266;7.402;2023-08-06T06:53:29;98724.88;;;19.52;67.41
43147;BME280;28752;48.266;7.402;2023-08-06T06:56:03;98697.25;;;19.27;67.08
43147;BME280;28752;48.266;7.402;2023-08-06T06:58:29;98717.47;;;19.48;67.09
43147;BME280;28752;48.266;7.402;2023-08-06T07:00:54;98718.41;;;19.60;67.67
43147;BME280;28752;48.266;7.402;2023-08-06T07:03:20;98745.63;;;19.89;66.78
43147;BME280;28752;48.266;7.402;2023-08-06T07:05:46;98719.88;;;19.75;66.92
43147;BME280;28752;48.266;7.402;2023-08-06T07:08:11;98700.50;;;19.73;65.32
43147;BME280;28752;48.266;7.402;2023-08-06T07:10:37;98754.03;;;20.60;64.64
43147;BME280;28752;48.266;7.402;2023-08-06T07:13:03;98735.91;;;20.86;64.60
43147;BME280;28752;48.266;7.402;2023-08-06T07:15:28;98715.13;;;20.63;62.66
43147;BME280;28752;48.266;7.402;2023-08-06T07:17:54;98712.47;;;20.14;62.99
43147;BME280;28752;48.266;7.402;2023-08-06T07:20:19;98755.75;;;20.24;64.05
43147;BME280;28752;48.266;7.402;2023-08-06T07:22:48;98704.59;;;19.75;64.80
43147;BME280;28752;48.266;7.402;2023-08-06T07:25:13;98760.50;;;20.22;65.19
43147;BME280;28752;48.266;7.402;2023-08-06T07:27:39;98746.69;;;19.81;65.60
43147;BME280;28752;48.266;7.402;2023-08-06T07:30:05;98739.72;;;19.74;65.55
43147;BME280;28752;48.266;7.402;2023-08-06T07:32:30;98744.41;;;19.60;66.62
43147;BME280;28752;48.266;7.402;2023-08-06T07:34:56;98771.09;;;19.80;65.43
43147;BME280;28752;48.266;7.402;2023-08-06T07:37:24;98743.44;;;19.54;65.56
43147;BME280;28752;48.266;7.402;2023-08-06T07:39:50;98784.84;;;19.90;65.50
43147;BME280;28752;48.266;7.402;2023-08-06T07:42:16;98801.97;;;19.45;64.76
43147;BME280;28752;48.266;7.402;2023-08-06T07:44:41;98774.91;;;19.47;65.51
43147;BME280;28752;48.266;7.402;2023-08-06T07:47:06;98795.22;;;20.05;64.57
43147;BME280;28752;48.266;7.402;2023-08-06T07:49:32;98773.34;;;20.38;63.59
43147;BME280;28752;48.266;7.402;2023-08-06T07:51:58;98783.13;;;20.70;62.85
43147;BME280;28752;48.266;7.402;2023-08-06T07:54:23;98776.66;;;20.89;60.99
43147;BME280;28752;48.266;7.402;2023-08-06T07:56:49;98772.75;;;20.55;61.12
43147;BME280;28752;48.266;7.402;2023-08-06T07:59:14;98797.50;;;20.75;61.73
43147;BME280;28752;48.266;7.402;2023-08-06T08:01:40;98779.66;;;20.63;60.96
43147;BME280;28752;48.266;7.402;2023-08-06T08:04:05;98798.38;;;20.57;62.69
43147;BME280;28752;48.266;7.402;2023-08-06T08:06:33;98815.00;;;20.85;61.93
43147;BME280;28752;48.266;7.402;2023-08-06T08:08:58;98809.06;;;20.94;61.96
43147;BME280;28752;48.266;7.402;2023-08-06T08:11:25;98787.69;;;21.11;60.92
43147;BME280;28752;48.266;7.402;2023-08-06T08:13:51;98806.47;;;21.30;61.27
43147;BME280;28752;48.266;7.402;2023-08-06T08:16:16;98809.09;;;21.48;59.41
43147;BME280;28752;48.266;7.402;2023-08-06T08:18:42;98824.25;;;21.85;59.56
43147;BME280;28752;48.266;7.402;2023-08-06T08:21:07;98780.56;;;21.71;57.87
43147;BME280;28752;48.266;7.402;2023-08-06T08:23:32;98769.31;;;21.51;59.23
43147;BME280;28752;48.266;7.402;2023-08-06T08:25:58;98809.31;;;21.47;59.76
43147;BME280;28752;48.266;7.402;2023-08-06T08:28:24;98781.81;;;21.03;59.93
43147;BME280;28752;48.266;7.402;2023-08-06T08:30:49;98780.78;;;20.73;60.14
43147;BME280;28752;48.266;7.402;2023-08-06T08:36:05;98835.84;;;20.89;60.17
43147;BME280;28752;48.266;7.402;2023-08-06T08:38:31;98803.34;;;20.54;60.75
43147;BME280;28752;48.266;7.402;2023-08-06T08:40:57;98847.53;;;20.83;60.50
43147;BME280;28752;48.266;7.402;2023-08-06T08:43:23;98836.69;;;20.71;60.24
43147;BME280;28752;48.266;7.402;2023-08-06T08:45:52;98844.44;;;20.61;61.13
43147;BME280;28752;48.266;7.402;2023-08-06T08:48:18;98817.03;;;20.15;61.67
43147;BME280;28752;48.266;7.402;2023-08-06T08:50:48;98821.59;;;20.15;61.71
43147;BME280;28752;48.266;7.402;2023-08-06T08:53:15;98822.69;;;19.88;63.28
43147;BME280;28752;48.266;7.402;2023-08-06T08:55:42;98824.56;;;19.88;62.14
43147;BME280;28752;48.266;7.402;2023-08-06T08:58:08;98795.69;;;20.02;62.35
43147;BME280;28752;48.266;7.402;2023-08-06T09:00:33;98855.25;;;20.36;61.78
43147;BME280;28752;48.266;7.402;2023-08-06T09:03:00;98809.94;;;20.02;61.37
43147;BME280;28752;48.266;7.402;2023-08-06T09:05:28;98825.56;;;20.31;61.46
43147;BME280;28752;48.266;7.402;2023-08-06T09:08:02;98829.72;;;20.27;60.61
43147;BME280;28752;48.266;7.402;2023-08-06T09:10:28;98867.31;;;20.52;61.27
43147;BME280;28752;48.266;7.402;2023-08-06T09:12:55;98838.75;;;19.95;60.34
43147;BME280;28752;48.266;7.402;2023-08-06T09:15:24;98837.28;;;19.67;62.06
43147;BME280;28752;48.266;7.402;2023-08-06T09:17:49;98856.59;;;19.83;62.24
43147;BME280;28752;48.266;7.402;2023-08-06T09:20:15;98868.16;;;20.09;61.80
43147;BME280;28752;48.266;7.402;2023-08-06T09:22:41;98877.53;;;20.24;62.29
43147;BME280;28752;48.266;7.402;2023-08-06T09:25:07;98845.56;;;20.16;62.22
43147;BME280;28752;48.266;7.402;2023-08-06T09:27:37;98832.06;;;20.23;60.50
43147;BME280;28752;48.266;7.402;2023-08-06T09:30:03;98879.41;;;20.42;60.23
43147;BME280;28752;48.266;7.402;2023-08-06T09:32:47;98890.59;;;20.39;60.55
43147;BME280;28752;48.266;7.402;2023-08-06T09:35:16;98846.03;;;19.88;60.95
43147;BME280;28752;48.266;7.402;2023-08-06T09:37:42;98904.88;;;20.40;60.67
43147;BME280;28752;48.266;7.402;2023-08-06T09:40:32;98898.66;;;20.21;60.48
43147;BME280;28752;48.266;7.402;2023-08-06T09:42:59;98888.59;;;19.91;60.74
43147;BME280;28752;48.266;7.402;2023-08-06T09:45:36;98901.56;;;19.94;61.43
43147;BME280;28752;48.266;7.402;2023-08-06T09:48:09;98865.81;;;19.68;61.07
43147;BME280;28752;48.266;7.402;2023-08-06T09:50:36;98860.53;;;19.55;61.75
43147;BME280;28752;48.266;7.402;2023-08-06T09:53:07;98904.44;;;19.67;60.85
43147;BME280;28752;48.266;7.402;2023-08-06T09:55:36;98888.75;;;19.64;61.64
43147;BME280;28752;48.266;7.402;2023-08-06T09:58:02;98912.97;;;19.58;61.81
43147;BME280;28752;48.266;7.402;2023-08-06T10:00:28;98942.28;;;19.59;62.29
43147;BME280;28752;48.266;7.402;2023-08-06T10:02:54;98954.97;;;19.45;62.85
43147;BME280;28752;48.266;7.402;2023-08-06T10:05:24;98978.28;;;19.51;63.20
43147;BME280;28752;48.266;7.402;2023-08-06T10:07:51;98979.16;;;19.39;63.77
43147;BME280;28752;48.266;7.402;2023-08-06T10:10:17;98976.88;;;18.90;62.77
43147;BME280;28752;48.266;7.402;2023-08-06T10:12:52;98980.13;;;19.12;64.46
43147;BME280;28752;48.266;7.402;2023-08-06T10:15:25;98986.56;;;18.91;63.44
43147;BME280;28752;48.266;7.402;2023-08-06T10:18:11;98968.66;;;18.72;63.72
43147;BME280;28752;48.266;7.402;2023-08-06T10:20:47;98994.63;;;18.91;63.70
43147;BME280;28752;48.266;7.402;2023-08-06T10:23:13;98965.34;;;18.76;63.11
43147;BME280;28752;48.266;7.402;2023-08-06T10:25:41;99006.13;;;19.05;63.32
43147;BME280;28752;48.266;7.402;2023-08-06T10:28:09;98972.38;;;18.71;64.20
43147;BME280;28752;48.266;7.402;2023-08-06T10:30:41;98966.47;;;19.14;62.39
43147;BME280;28752;48.266;7.402;2023-08-06T10:33:08;99008.56;;;19.27;62.37
43147;BME280;28752;48.266;7.402;2023-08-06T10:40:32;98994.94;;;19.67;59.98
43147;BME280;28752;48.266;7.402;2023-08-06T10:42:59;99003.56;;;19.76;61.82
43147;BME280;28752;48.266;7.402;2023-08-06T10:45:25;99002.94;;;19.74;60.92
43147;BME280;28752;48.266;7.402;2023-08-06T10:47:54;99034.34;;;19.73;62.50
43147;BME280;28752;48.266;7.402;2023-08-06T10:50:21;99010.31;;;20.17;60.56
43147;BME280;28752;48.266;7.402;2023-08-06T10:52:53;99000.88;;;20.58;59.84
43147;BME280;28752;48.266;7.402;2023-08-06T10:55:23;98954.22;;;20.71;58.93
43147;BME280;28752;48.266;7.402;2023-08-06T10:58:01;98965.81;;;20.71;57.17
43147;BME280;28752;48.266;7.402;2023-08-06T11:00:26;98980.91;;;21.09;56.86
43147;BME280;28752;48.266;7.402;2023-08-06T11:02:52;98994.41;;;21.40;55.80
43147;BME280;28752;48.266;7.402;2023-08-06T11:05:18;99006.44;;;21.37;55.63
43147;BME280;28752;48.266;7.402;2023-08-06T11:07:44;99025.97;;;21.70;55.39
43147;BME280;28752;48.266;7.402;2023-08-06T11:10:11;99009.91;;;21.26;55.01
43147;BME280;28752;48.266;7.402;2023-08-06T11:12:37;99032.47;;;21.43;57.36
43147;BME280;28752;48.266;7.402;2023-08-06T11:15:04;99027.16;;;21.37;56.20
43147;BME280;28752;48.266;7.402;2023-08-06T11:17:32;99017.59;;;21.41;56.27
43147;BME280;28752;48.266;7.402;2023-08-06T11:20:03;99024.19;;;21.08;55.65
43147;BME280;28752;48.266;7.402;2023-08-06T11:22:29;99012.97;;;20.92;56.00
43147;BME280;28752;48.266;7.402;2023-08-06T11:24:55;99010.34;;;20.86;56.00
43147;BME280;28752;48.266;7.402;2023-08-06T11:27:20;99010.66;;;20.96;56.15
43147;BME280;28752;48.266;7.402;2023-08-06T11:29:46;98977.03;;;20.62;54.81
43147;BME280;28752;48.266;7.402;2023-08-06T11:32:11;99007.72;;;20.79;56.96
43147;BME280;28752;48.266;7.402;2023-08-06T11:34:38;99013.88;;;20.86;55.64
43147;BME280;28752;48.266;7.402;2023-08-06T11:37:04;99019.19;;;20.93;55.96
43147;BME280;28752;48.266;7.402;2023-08-06T11:39:34;98998.00;;;20.97;54.46
43147;BME280;28752;48.266;7.402;2023-08-06T11:41:59;99002.22;;;20.92;56.81
43147;BME280;28752;48.266;7.402;2023-08-06T11:44:30;99043.94;;;21.02;56.37
43147;BME280;28752;48.266;7.402;2023-08-06T11:46:59;99072.63;;;20.89;56.96
43147;BME280;28752;48.266;7.402;2023-08-06T11:49:48;99055.97;;;20.99;58.48
43147;BME280;28752;48.266;7.402;2023-08-06T11:52:21;99056.41;;;21.70;56.45
43147;BME280;28752;48.266;7.402;2023-08-06T11:55:08;99052.22;;;21.74;56.66
43147;BME280;28752;48.266;7.402;2023-08-06T11:57:43;99028.66;;;21.51;56.73
43147;BME280;28752;48.266;7.402;2023-08-06T12:00:11;99051.78;;;21.59;53.87
43147;BME280;28752;48.266;7.402;2023-08-06T12:02:40;99064.44;;;20.77;58.24
43147;BME280;28752;48.266;7.402;2023-08-06T12:07:37;99081.84;;;21.00;58.13
43147;BME280;28752;48.266;7.402;2023-08-06T12:10:03;99069.72;;;20.91;58.11
43147;BME280;28752;48.266;7.402;2023-08-06T12:12:29;99026.66;;;20.91;57.51
43147;BME280;28752;48.266;7.402;2023-08-06T12:14:54;99052.22;;;21.37;58.02
43147;BME280;28752;48.266;7.402;2023-08-06T12:17:20;99050.22;;;21.51;57.52
43147;BME280;28752;48.266;7.402;2023-08-06T12:19:46;99060.00;;;21.64;56.63
43147;BME280;28752;48.266;7.402;2023-08-06T12:22:13;99036.50;;;21.71;57.94
43147;BME280;28752;48.266;7.402;2023-08-06T12:24:39;99071.59;;;21.95;57.75
43147;BME280;28752;48.266;7.402;2023-08-06T12:27:04;99006.59;;;21.24;56.30
43147;BME280;28752;48.266;7.402;2023-08-06T12:29:30;99062.09;;;21.62;55.70
43147;BME280;28752;48.266;7.402;2023-08-06T12:31:56;99017.59;;;21.22;56.58
43147;BME280;28752;48.266;7.402;2023-08-06T12:34:21;99072.50;;;21.40;56.27
43147;BME280;28752;48.266;7.402;2023-08-06T12:36:47;99064.09;;;21.48;55.26
43147;BME280;28752;48.266;7.402;2023-08-06T12:39:12;99072.25;;;21.78;54.81
43147;BME280;28752;48.266;7.402;2023-08-06T12:41:38;99055.44;;;21.95;53.13
43147;BME280;28752;48.266;7.402;2023-08-06T12:44:03;99050.97;;;21.89;54.29
43147;BME280;28752;48.266;7.402;2023-08-06T12:46:30;99037.66;;;22.06;53.39
43147;BME280;28752;48.266;7.402;2023-08-06T12:48:55;99019.84;;;21.44;53.98
43147;BME280;28752;48.266;7.402;2023-08-06T12:51:23;99034.91;;;21.63;53.43
43147;BME280;28752;48.266;7.402;2023-08-06T12:53:48;99031.88;;;21.41;53.67
43147;BME280;28752;48.266;7.402;2023-08-06T12:56:13;99044.00;;;21.32;53.74
43147;BME280;28752;48.266;7.402;2023-08-06T12:58:39;99095.75;;;21.16;53.98
43147;BME280;28752;48.266;7.402;2023-08-06T13:01:05;99087.16;;;21.44;55.40
43147;BME280;28752;48.266;7.402;2023-08-06T13:03:30;99095.91;;;21.76;56.58
43147;BME280;28752;48.266;7.402;2023-08-06T13:05:56;99081.56;;;21.64;55.99
43147;BME280;28752;48.266;7.402;2023-08-06T13:08:23;99088.81;;;21.94;56.54
43147;BME280;28752;48.266;7.402;2023-08-06T13:10:48;99058.72;;;21.48;53.67
43147;BME280;28752;48.266;7.402;2023-08-06T13:13:14;99045.06;;;21.12;54.58
43147;BME280;28752;48.266;7.402;2023-08-06T13:15:39;99042.59;;;21.11;55.35
43147;BME280;28752;48.266;7.402;2023-08-06T13:18:04;99052.97;;;20.64;52.86
43147;BME280;28752;48.266;7.402;2023-08-06T13:20:30;99076.66;;;20.80;55.76